createdAt,value
2023-05-19T00:01:00.262Z,3.17
2023-05-19T00:03:27.054Z,2.50
2023-05-19T00:05:54.372Z,2.40
2023-05-19T00:08:23.431Z,2.30
2023-05-19T00:10:50.409Z,2.00
2023-05-19T00:13:17.162Z,2.60
2023-05-19T00:15:43.825Z,2.33
2023-05-19T00:18:13.966Z,2.17
2023-05-19T00:20:40.692Z,2.27
2023-05-19T00:23:07.050Z,2.50
2023-05-19T00:25:33.464Z,2.33
2023-05-19T00:28:00.116Z,2.67
2023-05-19T00:30:26.712Z,2.57
2023-05-19T00:32:53.653Z,2.53
2023-05-19T00:35:20.233Z,2.60
2023-05-19T00:37:46.734Z,2.27
2023-05-19T00:40:13.562Z,3.20
2023-05-19T00:42:41.354Z,2.33
2023-05-19T00:45:08.605Z,2.90
2023-05-19T00:47:35.179Z,3.03
2023-05-19T00:50:01.773Z,2.70
2023-05-19T00:52:28.327Z,2.73
2023-05-19T00:54:55.605Z,2.67
2023-05-19T00:57:22.312Z,2.67
2023-05-19T00:59:49.010Z,2.67
2023-05-19T01:02:15.470Z,2.97
2023-05-19T01:04:43.868Z,2.70
2023-05-19T01:07:12.428Z,2.67
2023-05-19T01:09:39.434Z,2.90
2023-05-19T01:12:06.421Z,3.20
2023-05-19T01:14:32.919Z,2.70
2023-05-19T01:17:21.261Z,2.83
2023-05-19T01:20:02.055Z,2.37
2023-05-19T01:22:48.252Z,2.93
2023-05-19T01:25:49.901Z,2.77
2023-05-19T01:28:31.474Z,2.77
2023-05-19T01:31:01.475Z,3.07
2023-05-19T01:33:30.916Z,2.50
2023-05-19T01:35:59.039Z,2.73
2023-05-19T01:38:28.162Z,2.43
2023-05-19T01:40:56.551Z,2.53
2023-05-19T01:43:25.930Z,2.70
2023-05-19T01:45:53.623Z,2.40
2023-05-19T01:48:20.814Z,3.13
2023-05-19T01:50:47.529Z,3.00
2023-05-19T01:53:14.095Z,3.23
2023-05-19T01:55:44.676Z,2.97
2023-05-19T01:58:45.444Z,2.80
2023-05-19T02:01:20.961Z,2.50
2023-05-19T02:04:26.405Z,2.60
2023-05-19T02:07:03.971Z,3.20
2023-05-19T02:09:49.072Z,2.80
2023-05-19T02:12:20.255Z,2.77
2023-05-19T02:15:05.197Z,3.20
2023-05-19T02:17:36.056Z,2.50
2023-05-19T02:20:04.948Z,2.97
2023-05-19T02:22:31.857Z,2.77
2023-05-19T02:24:58.420Z,3.10
2023-05-19T02:27:24.886Z,3.00
2023-05-19T02:29:51.473Z,2.60
2023-05-19T02:32:18.788Z,3.03
2023-05-19T02:34:45.520Z,3.00
2023-05-19T02:37:16.253Z,3.40
2023-05-19T02:39:43.019Z,2.70
2023-05-19T02:42:09.899Z,3.10
2023-05-19T02:44:36.460Z,2.60
2023-05-19T02:47:02.890Z,3.00
2023-05-19T02:49:35.924Z,2.50
2023-05-19T02:52:03.326Z,2.70
2023-05-19T02:54:34.340Z,2.70
2023-05-19T02:57:02.635Z,3.17
2023-05-19T02:59:29.172Z,2.47
2023-05-19T03:01:59.776Z,2.83
2023-05-19T03:04:26.287Z,3.00
2023-05-19T03:06:54.055Z,2.67
2023-05-19T03:09:20.727Z,2.70
2023-05-19T03:11:47.164Z,2.87
2023-05-19T03:14:14.228Z,3.10
2023-05-19T03:16:42.264Z,2.70
2023-05-19T03:19:09.843Z,3.20
2023-05-19T03:21:36.688Z,3.10
2023-05-19T03:24:03.389Z,2.97
2023-05-19T03:26:29.885Z,2.73
2023-05-19T03:28:56.436Z,3.10
2023-05-19T03:31:22.928Z,2.70
2023-05-19T03:33:49.466Z,3.20
2023-05-19T03:36:15.852Z,2.83
2023-05-19T03:38:42.253Z,3.17
2023-05-19T03:41:08.749Z,2.70
2023-05-19T03:43:35.163Z,3.37
2023-05-19T03:46:02.140Z,2.60
2023-05-19T03:48:28.668Z,2.80
2023-05-19T03:50:55.556Z,3.03
2023-05-19T03:53:22.013Z,2.80
2023-05-19T03:55:49.741Z,3.10
2023-05-19T03:58:16.454Z,2.87
2023-05-19T04:00:42.824Z,2.83
2023-05-19T04:03:09.494Z,3.13
2023-05-19T04:05:36.031Z,3.20
2023-05-19T04:08:02.373Z,2.73
2023-05-19T04:10:29.169Z,2.80
2023-05-19T04:12:55.571Z,2.80
2023-05-19T04:15:22.109Z,2.60
2023-05-19T04:17:48.614Z,3.07
2023-05-19T04:20:15.054Z,2.83
2023-05-19T04:22:41.582Z,2.67
2023-05-19T04:25:08.925Z,2.87
2023-05-19T04:27:39.122Z,3.13
2023-05-19T04:30:06.431Z,2.87
2023-05-19T04:32:33.076Z,2.90
2023-05-19T04:34:59.586Z,2.70
2023-05-19T04:37:26.464Z,2.80
2023-05-19T04:39:53.096Z,3.20
2023-05-19T04:42:19.657Z,3.23
2023-05-19T04:44:49.090Z,3.20
2023-05-19T04:47:15.633Z,3.70
2023-05-19T04:49:42.034Z,2.97
2023-05-19T04:52:12.569Z,3.17
2023-05-19T04:54:40.095Z,3.03
2023-05-19T04:57:06.986Z,3.13
2023-05-19T04:59:33.526Z,2.87
2023-05-19T05:02:00.160Z,3.20
2023-05-19T05:04:26.688Z,3.23
2023-05-19T05:06:53.272Z,3.23
2023-05-19T05:09:20.025Z,2.90
2023-05-19T05:11:46.790Z,2.83
2023-05-19T05:14:13.531Z,3.03
2023-05-19T05:16:40.815Z,3.27
2023-05-19T05:19:07.583Z,2.67
2023-05-19T05:21:34.628Z,3.03
2023-05-19T05:24:01.490Z,3.13
2023-05-19T05:26:30.518Z,2.93
2023-05-19T05:28:56.964Z,2.93
2023-05-19T05:31:23.332Z,3.17
2023-05-19T05:33:50.064Z,2.50
2023-05-19T05:36:16.559Z,2.90
2023-05-19T05:38:42.967Z,2.97
2023-05-19T05:41:10.475Z,2.47
2023-05-19T05:43:36.838Z,2.53
2023-05-19T05:46:03.334Z,2.60
2023-05-19T05:48:30.217Z,2.73
2023-05-19T05:50:57.254Z,2.50
2023-05-19T05:53:26.141Z,2.37
2023-05-19T05:55:53.620Z,2.43
2023-05-19T05:58:21.144Z,2.27
2023-05-19T06:00:49.276Z,2.23
2023-05-19T06:05:43.224Z,2.83
2023-05-19T06:08:09.648Z,2.43
2023-05-19T06:10:39.347Z,2.75
2023-05-19T06:13:05.817Z,2.83
2023-05-19T06:15:32.355Z,2.60
2023-05-19T06:17:59.300Z,2.30
2023-05-19T06:20:26.275Z,2.70
2023-05-19T06:22:52.728Z,2.83
2023-05-19T06:25:20.592Z,2.37
2023-05-19T06:27:46.951Z,2.60
2023-05-19T06:30:13.751Z,2.50
2023-05-19T06:32:40.466Z,2.37
2023-05-19T06:35:07.354Z,2.37
2023-05-19T06:37:33.770Z,2.57
2023-05-19T06:40:00.299Z,2.43
2023-05-19T06:42:26.708Z,2.80
2023-05-19T06:44:53.452Z,3.97
2023-05-19T06:47:19.913Z,2.77
2023-05-19T06:49:46.828Z,2.43
2023-05-19T06:52:13.308Z,2.50
2023-05-19T06:54:39.840Z,2.10
2023-05-19T06:57:06.532Z,1.87
2023-05-19T06:59:32.968Z,2.07
2023-05-19T07:01:59.540Z,2.00
2023-05-19T07:04:26.201Z,2.40
2023-05-19T07:06:53.374Z,2.10
2023-05-19T07:09:19.777Z,2.17
2023-05-19T07:11:46.684Z,2.00
2023-05-19T07:14:13.099Z,2.37
2023-05-19T07:16:39.562Z,2.33
2023-05-19T07:19:06.163Z,2.10
2023-05-19T07:21:32.673Z,2.13
2023-05-19T07:23:59.097Z,1.90
2023-05-19T07:26:26.699Z,2.20
2023-05-19T07:28:53.357Z,1.97
2023-05-19T07:31:19.853Z,2.10
2023-05-19T07:33:46.318Z,2.00
2023-05-19T07:36:12.859Z,1.87
2023-05-19T07:38:39.414Z,1.93
2023-05-19T07:41:05.892Z,1.83
2023-05-19T07:43:32.599Z,1.80
2023-05-19T07:45:59.097Z,5.50
2023-05-19T07:48:25.905Z,2.90
2023-05-19T07:50:53.066Z,2.37
2023-05-19T07:53:20.227Z,3.40
2023-05-19T07:55:46.818Z,1.97
2023-05-19T07:58:13.386Z,2.37
2023-05-19T08:00:41.018Z,2.83
2023-05-19T08:03:08.032Z,2.33
2023-05-19T08:05:35.616Z,2.40
2023-05-19T08:08:02.843Z,2.20
2023-05-19T08:10:29.477Z,2.10
2023-05-19T08:12:56.058Z,2.50
2023-05-19T08:15:22.446Z,2.03
2023-05-19T08:17:48.867Z,1.80
2023-05-19T08:20:15.382Z,2.10
2023-05-19T08:22:41.797Z,1.80
2023-05-19T08:25:09.607Z,2.10
2023-05-19T08:27:36.295Z,2.07
2023-05-19T08:30:02.769Z,2.10
2023-05-19T08:32:29.199Z,2.20
2023-05-19T08:34:55.699Z,1.90
2023-05-19T08:37:22.151Z,2.23
2023-05-19T08:39:48.767Z,2.30
2023-05-19T08:42:15.377Z,2.20
2023-05-19T08:44:43.876Z,2.00
2023-05-19T08:47:13.950Z,2.17
2023-05-19T08:49:46.562Z,2.20
2023-05-19T08:52:47.845Z,2.10
2023-05-19T08:55:29.017Z,2.30
2023-05-19T08:57:56.376Z,2.07
2023-05-19T09:00:23.523Z,2.00
2023-05-19T09:03:00.825Z,2.17
2023-05-19T09:05:38.986Z,2.03
2023-05-19T09:08:05.402Z,2.17
2023-05-19T09:10:31.819Z,2.10
2023-05-19T09:12:58.452Z,2.20
2023-05-19T09:15:28.394Z,2.00
2023-05-19T09:18:12.349Z,2.33
2023-05-19T09:20:44.458Z,1.83
2023-05-19T09:23:16.051Z,2.00
2023-05-19T09:25:50.816Z,1.93
2023-05-19T09:28:25.304Z,1.93
2023-05-19T09:31:04.869Z,2.23
2023-05-19T09:33:36.832Z,2.07
2023-05-19T09:36:06.183Z,2.07
2023-05-19T09:38:33.159Z,1.93
2023-05-19T09:41:00.370Z,2.00
2023-05-19T09:43:31.580Z,2.00
2023-05-19T09:46:04.247Z,2.27
2023-05-19T09:48:30.813Z,2.17
2023-05-19T09:50:58.166Z,1.73
2023-05-19T09:53:27.842Z,2.37
2023-05-19T09:55:57.868Z,2.53
2023-05-19T09:58:25.005Z,1.83
2023-05-19T10:00:52.390Z,1.90
2023-05-19T10:03:19.572Z,2.13
2023-05-19T10:05:47.278Z,2.07
2023-05-19T10:08:14.247Z,1.97
2023-05-19T10:10:41.209Z,2.10
2023-05-19T10:13:07.890Z,2.00
2023-05-19T10:15:40.766Z,2.23
2023-05-19T10:18:12.096Z,2.10
2023-05-19T10:20:40.066Z,2.30
2023-05-19T10:23:06.555Z,2.00
2023-05-19T10:25:35.288Z,1.80
2023-05-19T10:28:13.739Z,2.10
2023-05-19T10:30:44.803Z,2.10
2023-05-19T10:33:15.428Z,2.10
2023-05-19T10:35:41.888Z,2.07
2023-05-19T10:38:14.534Z,1.80
2023-05-19T10:40:58.046Z,2.30
2023-05-19T10:43:40.852Z,1.93
2023-05-19T10:46:07.456Z,2.20
2023-05-19T10:48:37.331Z,2.10
2023-05-19T10:51:04.768Z,2.10
2023-05-19T10:53:32.509Z,2.33
2023-05-19T10:56:04.383Z,2.53
2023-05-19T10:58:56.484Z,2.13
2023-05-19T11:01:24.797Z,1.80
2023-05-19T11:03:57.510Z,2.03
2023-05-19T11:06:29.610Z,2.20
2023-05-19T11:08:58.111Z,2.40
2023-05-19T11:11:24.673Z,1.80
2023-05-19T11:13:55.540Z,2.80
2023-05-19T11:16:34.690Z,2.00
2023-05-19T11:19:01.909Z,2.10
2023-05-19T11:21:52.604Z,2.10
2023-05-19T11:24:40.076Z,2.17
2023-05-19T11:27:32.791Z,2.17
2023-05-19T11:30:11.752Z,2.10
2023-05-19T11:32:44.429Z,2.20
2023-05-19T11:35:11.136Z,2.37
2023-05-19T11:37:37.592Z,1.97
2023-05-19T11:40:07.091Z,2.00
2023-05-19T11:42:37.386Z,2.00
2023-05-19T11:45:05.007Z,2.20
2023-05-19T11:47:42.016Z,2.27
2023-05-19T11:50:19.008Z,2.30
2023-05-19T11:52:46.272Z,2.40
2023-05-19T11:55:16.758Z,2.13
2023-05-19T11:58:04.712Z,2.23
2023-05-19T12:00:39.878Z,2.13
2023-05-19T12:03:07.820Z,2.00
2023-05-19T12:05:41.955Z,2.20
2023-05-19T12:08:09.684Z,1.93
2023-05-19T12:10:36.836Z,2.47
2023-05-19T12:13:03.583Z,2.13
2023-05-19T12:15:31.811Z,2.10
2023-05-19T12:18:00.553Z,2.07
2023-05-19T12:20:28.656Z,1.80
2023-05-19T12:22:56.344Z,2.10
2023-05-19T12:25:23.683Z,1.77
2023-05-19T12:27:52.791Z,1.77
2023-05-19T12:30:26.184Z,2.43
2023-05-19T12:32:54.204Z,1.73
2023-05-19T12:35:23.254Z,1.90
2023-05-19T12:37:50.497Z,1.90
2023-05-19T12:40:17.195Z,1.80
2023-05-19T12:42:48.616Z,2.10
2023-05-19T12:45:15.195Z,1.80
2023-05-19T12:47:41.855Z,2.00
2023-05-19T12:50:10.206Z,2.03
2023-05-19T12:52:45.792Z,2.00
2023-05-19T12:55:13.959Z,2.03
2023-05-19T12:57:42.816Z,2.30
2023-05-19T13:00:16.713Z,2.30
2023-05-19T13:03:04.792Z,1.83
2023-05-19T13:05:33.998Z,2.00
2023-05-19T13:08:08.917Z,1.87
2023-05-19T13:10:36.943Z,2.20
2023-05-19T13:13:04.319Z,1.90
2023-05-19T13:15:37.704Z,2.03
2023-05-19T13:18:06.305Z,2.10
2023-05-19T13:20:35.674Z,2.00
2023-05-19T13:23:03.256Z,1.80
2023-05-19T13:25:29.735Z,1.87
2023-05-19T13:27:56.731Z,2.00
2023-05-19T13:30:23.849Z,2.30
2023-05-19T13:32:52.346Z,2.10
2023-05-19T13:35:19.025Z,2.13
2023-05-19T13:37:45.599Z,2.40
2023-05-19T13:40:13.841Z,2.00
2023-05-19T13:42:40.775Z,2.10
2023-05-19T13:45:08.028Z,2.00
2023-05-19T13:47:34.566Z,2.07
2023-05-19T13:50:04.406Z,1.90
2023-05-19T13:52:31.203Z,1.90
2023-05-19T13:54:57.863Z,2.23
2023-05-19T13:57:24.360Z,1.80
2023-05-19T14:00:02.055Z,1.90
2023-05-19T14:02:30.407Z,2.00
2023-05-19T14:04:57.513Z,1.77
2023-05-19T14:07:24.198Z,2.13
2023-05-19T14:09:51.941Z,1.70
2023-05-19T14:12:18.680Z,2.10
2023-05-19T14:14:45.699Z,2.25
2023-05-19T14:17:12.266Z,2.10
2023-05-19T14:19:39.007Z,1.63
2023-05-19T14:22:05.897Z,1.80
2023-05-19T14:24:32.424Z,1.67
2023-05-19T14:26:59.032Z,2.10
2023-05-19T14:29:25.587Z,1.77
2023-05-19T14:31:52.084Z,2.10
2023-05-19T14:34:21.014Z,1.65
2023-05-19T14:36:48.617Z,2.00
2023-05-19T14:39:15.094Z,2.08
2023-05-19T14:41:41.477Z,1.77
2023-05-19T14:44:08.035Z,1.80
2023-05-19T14:46:34.435Z,2.00
2023-05-19T14:49:00.986Z,1.70
2023-05-19T14:51:27.535Z,1.85
2023-05-19T14:53:54.032Z,1.70
2023-05-19T14:56:21.899Z,1.90
2023-05-19T14:58:48.397Z,2.20
2023-05-19T15:01:14.842Z,1.88
2023-05-19T15:03:41.294Z,2.27
2023-05-19T15:06:10.397Z,1.90
2023-05-19T15:08:37.897Z,1.95
2023-05-19T15:11:04.635Z,1.67
2023-05-19T15:13:31.020Z,1.70
2023-05-19T15:16:12.265Z,1.80
2023-05-19T15:18:43.217Z,1.75
2023-05-19T15:21:09.978Z,1.80
2023-05-19T15:23:36.465Z,1.90
2023-05-19T15:26:02.905Z,1.58
2023-05-19T15:28:29.599Z,1.90
2023-05-19T15:30:56.092Z,1.60
2023-05-19T15:33:22.553Z,1.77
2023-05-19T15:35:51.686Z,1.80
2023-05-19T15:38:21.112Z,1.70
2023-05-19T15:40:47.564Z,1.80
2023-05-19T15:43:14.274Z,1.98
2023-05-19T15:45:40.945Z,1.77
2023-05-19T15:48:07.503Z,2.20
2023-05-19T15:50:34.189Z,1.80
2023-05-19T15:53:00.907Z,1.92
2023-05-19T15:55:27.501Z,1.93
2023-05-19T15:57:54.114Z,2.00
2023-05-19T16:00:20.773Z,1.70
2023-05-19T16:02:47.371Z,1.70
2023-05-19T16:05:13.973Z,1.85
2023-05-19T16:07:41.920Z,1.60
2023-05-19T16:10:08.893Z,1.85
2023-05-19T16:12:36.417Z,2.00
2023-05-19T16:15:04.024Z,1.80
2023-05-19T16:17:30.663Z,1.92
2023-05-19T16:19:57.105Z,2.05
2023-05-19T16:22:25.422Z,2.67
2023-05-19T16:24:52.519Z,1.60
2023-05-19T16:27:19.160Z,2.17
2023-05-19T16:29:45.905Z,2.05
2023-05-19T16:32:13.031Z,1.60
2023-05-19T16:34:39.739Z,1.92
2023-05-19T16:37:06.260Z,2.35
2023-05-19T16:39:32.941Z,1.88
2023-05-19T16:41:59.362Z,1.90
2023-05-19T16:44:26.327Z,2.17
2023-05-19T16:46:52.773Z,1.80
2023-05-19T16:49:19.157Z,2.05
2023-05-19T16:51:46.826Z,3.83
2023-05-19T16:54:14.745Z,2.38
2023-05-19T16:56:41.201Z,2.13
2023-05-19T16:59:09.380Z,1.63
2023-05-19T17:01:36.136Z,1.73
2023-05-19T17:04:02.604Z,2.28
2023-05-19T17:06:29.057Z,2.25
2023-05-19T17:08:55.529Z,2.10
2023-05-19T17:11:22.006Z,2.10
2023-05-19T17:13:48.724Z,1.83
2023-05-19T17:16:15.856Z,1.97
2023-05-19T17:18:43.830Z,1.90
2023-05-19T17:21:10.586Z,1.67
2023-05-19T17:23:37.884Z,1.67
2023-05-19T17:26:04.500Z,1.85
2023-05-19T17:28:31.053Z,1.67
2023-05-19T17:30:57.405Z,1.83
2023-05-19T17:33:23.933Z,1.85
2023-05-19T17:35:50.574Z,1.90
2023-05-19T17:38:17.025Z,2.13
2023-05-19T17:40:43.492Z,1.58
2023-05-19T17:43:09.885Z,1.80
2023-05-19T17:45:36.320Z,1.67
2023-05-19T17:48:03.219Z,1.90
2023-05-19T17:50:29.660Z,1.70
2023-05-19T17:52:56.375Z,1.80
2023-05-19T17:55:27.998Z,1.73
2023-05-19T17:57:54.618Z,1.97
2023-05-19T18:00:21.490Z,1.70
2023-05-19T18:02:48.518Z,2.20
2023-05-19T18:05:15.660Z,1.87
2023-05-19T18:07:42.403Z,1.70
2023-05-19T18:10:09.697Z,1.77
2023-05-19T18:12:36.237Z,1.83
2023-05-19T18:15:03.272Z,1.90
2023-05-19T18:17:29.858Z,1.80
2023-05-19T18:19:56.316Z,2.00
2023-05-19T18:22:22.768Z,2.20
2023-05-19T18:24:49.279Z,1.87
2023-05-19T18:27:15.781Z,1.90
2023-05-19T18:29:42.336Z,1.87
2023-05-19T18:32:09.268Z,1.70
2023-05-19T18:34:35.813Z,1.70
2023-05-19T18:37:02.210Z,1.80
2023-05-19T18:39:29.424Z,1.70
2023-05-19T18:41:56.116Z,1.77
2023-05-19T18:44:22.669Z,2.00
2023-05-19T18:46:49.141Z,2.10
2023-05-19T18:49:15.780Z,2.00
2023-05-19T18:51:42.493Z,1.60
2023-05-19T18:54:09.158Z,1.73
2023-05-19T18:56:35.846Z,2.00
2023-05-19T18:59:02.344Z,1.93
2023-05-19T19:01:28.915Z,1.83
2023-05-19T19:03:55.480Z,2.07
2023-05-19T19:06:23.133Z,1.80
2023-05-19T19:08:50.076Z,1.73
2023-05-19T19:11:16.536Z,2.30
2023-05-19T19:13:43.579Z,2.07
2023-05-19T19:16:10.150Z,1.70
2023-05-19T19:18:36.869Z,1.60
2023-05-19T19:21:05.649Z,2.40
2023-05-19T19:23:32.543Z,1.90
2023-05-19T19:25:59.009Z,1.90
2023-05-19T19:28:25.570Z,2.20
2023-05-19T19:30:52.064Z,1.90
2023-05-19T19:33:18.679Z,1.67
2023-05-19T19:35:46.886Z,1.60
2023-05-19T19:38:13.751Z,1.73
2023-05-19T19:40:40.471Z,1.73
2023-05-19T19:43:06.917Z,2.33
2023-05-19T19:45:34.757Z,1.93
2023-05-19T19:48:01.761Z,1.80
2023-05-19T19:50:28.338Z,2.10
2023-05-19T19:52:54.913Z,2.80
2023-05-19T19:55:21.698Z,1.70
2023-05-19T19:57:49.400Z,2.80
2023-05-19T20:00:16.551Z,1.93
2023-05-19T20:02:59.518Z,1.80
2023-05-19T20:05:29.532Z,2.07
2023-05-19T20:07:55.925Z,1.90
2023-05-19T20:10:22.427Z,1.90
2023-05-19T20:12:50.416Z,1.80
2023-05-19T20:15:17.003Z,1.80
2023-05-19T20:17:43.437Z,2.00
2023-05-19T20:20:11.672Z,1.70
2023-05-19T20:22:39.198Z,2.00
2023-05-19T20:25:06.427Z,1.97
2023-05-19T20:27:32.947Z,2.77
2023-05-19T20:29:59.557Z,1.90
2023-05-19T20:32:25.988Z,1.70
2023-05-19T20:34:52.651Z,1.97
2023-05-19T20:37:19.144Z,2.30
2023-05-19T20:39:45.531Z,1.80
2023-05-19T20:42:12.213Z,2.20
2023-05-19T20:44:38.804Z,1.70
2023-05-19T20:47:08.038Z,1.53
2023-05-19T20:49:35.036Z,2.10
2023-05-19T20:52:01.619Z,1.90
2023-05-19T20:54:28.075Z,1.90
2023-05-19T20:56:54.627Z,1.60
2023-05-19T20:59:21.177Z,1.80
2023-05-19T21:01:47.954Z,1.90
2023-05-19T21:04:14.437Z,2.27
2023-05-19T21:06:41.035Z,1.87
2023-05-19T21:09:07.556Z,1.70
2023-05-19T21:11:34.332Z,1.83
2023-05-19T21:14:04.276Z,1.83
2023-05-19T21:16:31.526Z,1.93
2023-05-19T21:18:58.078Z,1.90
2023-05-19T21:21:24.874Z,1.93
2023-05-19T21:23:51.387Z,1.90
2023-05-19T21:26:18.126Z,1.93
2023-05-19T21:28:44.526Z,1.97
2023-05-19T21:31:11.089Z,1.63
2023-05-19T21:33:37.867Z,2.20
2023-05-19T21:36:04.527Z,1.87
2023-05-19T21:38:30.921Z,1.87
2023-05-19T21:40:57.387Z,2.20
2023-05-19T21:43:23.829Z,1.90
2023-05-19T21:45:50.281Z,2.13
2023-05-19T21:48:16.827Z,1.70
2023-05-19T21:50:43.400Z,2.00
2023-05-19T21:53:09.779Z,1.87
2023-05-19T21:55:36.303Z,1.87
2023-05-19T21:58:02.977Z,2.10
2023-05-19T22:00:29.455Z,2.10
2023-05-19T22:02:56.006Z,2.13
2023-05-19T22:05:22.464Z,1.80
2023-05-19T22:07:48.920Z,2.03
2023-05-19T22:10:15.424Z,1.63
2023-05-19T22:12:41.875Z,2.20
2023-05-19T22:15:08.956Z,1.70
2023-05-19T22:17:35.550Z,2.10
2023-05-19T22:20:02.013Z,2.10
2023-05-19T22:22:28.443Z,2.20
2023-05-19T22:24:55.981Z,2.10
2023-05-19T22:27:22.367Z,2.60
2023-05-19T22:29:48.860Z,2.10
2023-05-19T22:32:17.959Z,2.10
2023-05-19T22:34:44.841Z,1.70
2023-05-19T22:37:12.189Z,1.93
2023-05-19T22:39:39.283Z,1.77
2023-05-19T22:42:06.076Z,1.60
2023-05-19T22:44:32.514Z,1.77
2023-05-19T22:46:59.007Z,2.10
2023-05-19T22:49:27.285Z,1.80
2023-05-19T22:51:53.706Z,2.03
2023-05-19T22:54:20.190Z,2.13
2023-05-19T22:56:48.783Z,1.90
2023-05-19T22:59:17.597Z,2.93
2023-05-19T23:01:46.526Z,1.87
2023-05-19T23:04:13.890Z,1.90
2023-05-19T23:06:40.428Z,1.97
2023-05-19T23:09:06.893Z,2.07
2023-05-19T23:11:34.143Z,2.20
2023-05-19T23:14:00.752Z,1.90
2023-05-19T23:16:27.266Z,1.80
2023-05-19T23:18:53.684Z,1.83
2023-05-19T23:21:20.096Z,2.37
2023-05-19T23:23:46.557Z,1.77
2023-05-19T23:26:15.776Z,1.87
2023-05-19T23:28:42.847Z,1.70
2023-05-19T23:31:09.752Z,1.90
2023-05-19T23:33:36.276Z,2.17
2023-05-19T23:36:08.524Z,1.80
2023-05-19T23:38:35.897Z,1.93
2023-05-19T23:41:02.463Z,1.53
2023-05-19T23:43:29.053Z,1.87
2023-05-19T23:45:55.639Z,1.87
2023-05-19T23:48:22.072Z,1.73
2023-05-19T23:50:48.482Z,1.67
2023-05-19T23:53:15.059Z,1.80
2023-05-19T23:55:42.118Z,1.80
2023-05-19T23:58:08.639Z,1.70
